CheckWX is a tool to help pilots better visualize weather data.  It is not intended as a substitute for an official pre-flight weather briefing.

00:22:16 UTC

KPIA METAR
General Downing - Peoria International Airport
Peoria, Illinois, USA
Current

28 mins ago

KPIA 112354Z 33012G19KT 10SM CLR M07/M13 A3041 RMK AO2 PK WND 32027/2317 SLP306 60003 T10671133 11044 21067 53017 $
Observed
Nov-11 @ 23:54 UTC
Wind
  • 330° at 12 KTS
  • Gusting to 19 KTS
Visibility
10 SM
Flight Rules
VFR
Cloud Levels
  • Clear skies
Temperature
-7°C / 19°F
Dewpoint
-13°C / 9°F
Humidity
63%
Altimeter
30.41" Hg
Pressure
1029.82 hPa
Previous

1 hour ago

KPIA 112254Z 34009G25KT 10SM BKN032 M06/M12 A3037 RMK AO2 SLP294 T10561117 $
Observed
Nov-11 @ 22:54 UTC
Wind
  • 340° at 9 KTS
  • Gusting to 25 KTS
Visibility
10 SM
Flight Rules
VFR
Cloud Levels
  • Broken at 3,200' AGL
Temperature
-6°C / 21°F
Dewpoint
-12°C / 10°F
Humidity
63%
Altimeter
30.37" Hg
Pressure
1028.42 hPa
Previous

2 hours ago

KPIA 112154Z 34012G21KT 10SM BKN030 M05/M12 A3036 RMK AO2 SNB31E38 SLP289 P0000 T10501117 $
Observed
Nov-11 @ 21:54 UTC
Wind
  • 340° at 12 KTS
  • Gusting to 21 KTS
Visibility
10 SM
Flight Rules
MVFR
Cloud Levels
  • Broken at 3,000' AGL
Temperature
-5°C / 23°F
Dewpoint
-12°C / 10°F
Humidity
58%
Altimeter
30.36" Hg
Pressure
1028.12 hPa
Current Rain
0.01"